Time;durP1;ratioP1;P1;durP2;ratioP2;P2;SDS_P1;SDS_P2;PMS_P1;PMS_P2;Temp;Humidity;BMP_temperature;BMP_pressure;BME280_temperature;BME280_humidity;BME280_pressure;Samples;Min_cycle;Max_cycle;Signal;HPM_P1;HPM_P2
2022/01/27 00:05:26;;;;;;;67.18;40.47;;;;;;;0.15;61.95;101327.47;5058277;28;20552;-71
2022/01/27 00:08:17;;;;;;;64.32;38.35;;;;;;;-0.05;62.77;101334.06;5054175;28;20037;-71
2022/01/27 00:13:13;;;;;;;48.70;31.45;;;;;;;0.18;61.58;101344.00;5057834;28;20082;-71
2022/01/27 00:15:40;;;;;;;52.13;29.95;;;;;;;0.17;61.61;101362.88;5057246;28;20036;-72
2022/01/27 00:18:13;;;;;;;49.22;27.58;;;;;;;0.06;61.32;101352.75;5052426;28;20047;-71
2022/01/27 00:20:39;;;;;;;37.70;24.98;;;;;;;0.12;61.75;101371.19;5041059;28;20491;-71
2022/01/27 00:23:05;;;;;;;38.30;27.95;;;;;;;0.06;62.19;101358.78;5043047;28;20090;-71
2022/01/27 00:25:30;;;;;;;44.65;24.98;;;;;;;-0.06;62.15;101363.25;5050413;28;20041;-71
2022/01/27 00:27:56;;;;;;;36.35;22.88;;;;;;;-0.05;61.64;101370.19;5050043;28;20408;-71
2022/01/27 00:30:23;;;;;;;35.33;24.00;;;;;;;-0.14;61.78;101355.06;5057574;28;20464;-71
2022/01/27 00:32:49;;;;;;;40.80;27.05;;;;;;;-0.17;61.63;101348.84;5050935;28;20033;-71
2022/01/27 00:35:14;;;;;;;32.25;23.20;;;;;;;-0.37;61.53;101368.31;5056599;28;20488;-71
2022/01/27 00:37:40;;;;;;;34.63;22.55;;;;;;;-0.28;61.48;101372.31;5049365;28;20492;-71
2022/01/27 00:40:08;;;;;;;40.08;23.33;;;;;;;-0.19;61.20;101353.00;5055008;28;20029;-73
2022/01/27 00:42:34;;;;;;;32.10;21.17;;;;;;;-0.36;61.30;101352.91;5065376;28;20044;-71
2022/01/27 00:45:11;;;;;;;37.95;25.75;;;;;;;-0.20;61.01;101352.13;5054346;28;20037;-72
2022/01/27 00:47:36;;;;;;;39.10;19.10;;;;;;;-0.07;60.66;101367.53;5056788;28;20033;-76
2022/01/27 00:50:03;;;;;;;31.73;20.52;;;;;;;-0.20;61.09;101358.97;5069787;28;20029;-71
2022/01/27 00:52:52;;;;;;;33.55;24.55;;;;;;;-0.42;61.29;101337.09;5052782;28;20480;-71
2022/01/27 00:55:15;;;;;;;31.10;19.70;;;;;;;-0.43;61.12;101340.47;5061797;28;20475;-72
2022/01/27 01:00:49;;;;;;;34.97;23.65;;;;;;;-0.55;61.39;101345.78;5054606;28;20686;-71
2022/01/27 01:03:25;;;;;;;30.70;20.67;;;;;;;-0.36;61.75;101368.38;5054178;28;20028;-71
2022/01/27 01:16:00;;;;;;;35.90;20.90;;;;;;;-0.12;61.10;101383.50;5061962;28;20058;-72
2022/01/27 01:18:57;;;;;;;59.67;22.20;;;;;;;-0.28;61.45;101371.41;5062972;28;20024;-73
2022/01/27 01:21:38;;;;;;;33.65;21.20;;;;;;;-0.28;61.45;101379.13;5053556;28;20095;-77
2022/01/27 01:31:12;;;;;;;31.55;20.60;;;;;;;-0.77;62.77;101353.91;4985075;28;20101;-71
2022/01/27 01:33:25;;;;;;;55.17;24.55;;;;;;;-0.99;63.74;101349.13;4967722;28;20070;-71
2022/01/27 01:36:01;;;;;;;28.33;19.63;;;;;;;-0.93;63.51;101353.78;4995026;28;20081;-71
2022/01/27 01:38:29;;;;;;;32.97;22.08;;;;;;;-0.83;62.84;101332.03;5057665;28;20083;-70
2022/01/27 01:40:56;;;;;;;32.17;19.63;;;;;;;-0.86;62.42;101337.91;5059053;28;20059;-71
2022/01/27 01:43:22;;;;;;;31.75;18.77;;;;;;;-0.82;62.51;101328.66;5056589;28;20033;-73
2022/01/27 01:45:49;;;;;;;25.63;18.52;;;;;;;-0.74;62.63;101333.47;5053028;28;20032;-72
2022/01/27 01:48:15;;;;;;;33.85;19.58;;;;;;;-0.74;62.47;101325.75;5052287;28;20037;-71
2022/01/27 01:50:41;;;;;;;30.45;17.63;;;;;;;-0.53;62.16;101335.56;5063408;28;20052;-71
2022/01/27 01:53:06;;;;;;;27.10;19.10;;;;;;;-0.29;62.32;101360.19;5051924;28;20044;-72
2022/01/27 01:55:32;;;;;;;26.50;17.60;;;;;;;-0.65;61.83;101328.00;5058654;28;20029;-72
2022/01/27 01:58:02;;;;;;;28.00;17.60;;;;;;;-0.39;61.39;101336.38;5053784;28;20025;-71
2022/01/27 02:00:29;;;;;;;29.13;18.42;;;;;;;-0.20;61.43;101346.97;5053581;28;20025;-72
2022/01/27 02:06:11;;;;;;;34.20;19.23;;;;;;;-0.14;60.96;101339.59;5065784;28;20539;-71
2022/01/27 02:08:50;;;;;;;26.38;19.35;;;;;;;-0.23;61.19;101342.53;5067319;28;20384;-70
2022/01/27 02:20:00;;;;;;;32.20;18.98;;;;;;;-0.15;62.09;101314.59;5057527;28;20407;-72
2022/01/27 02:22:26;;;;;;;24.63;16.40;;;;;;;-0.22;61.06;101307.31;5051113;28;20041;-71
2022/01/27 02:24:52;;;;;;;24.85;15.63;;;;;;;-0.02;60.63;101299.03;5053178;28;20103;-70
2022/01/27 02:27:19;;;;;;;25.67;16.98;;;;;;;0.31;60.30;101313.75;5069256;28;20040;-70
2022/01/27 02:30:14;;;;;;;29.92;19.80;;;;;;;0.14;60.50;101310.19;5062181;28;20055;-71
2022/01/27 02:32:39;;;;;;;23.27;16.98;;;;;;;0.19;59.73;101294.19;5057274;28;20393;-71
2022/01/27 02:35:05;;;;;;;21.83;14.35;;;;;;;0.32;59.49;101331.00;5050796;28;20048;-71
2022/01/27 02:37:31;;;;;;;26.95;19.08;;;;;;;0.28;58.71;101303.22;5064389;28;20045;-70
2022/01/27 02:39:56;;;;;;;22.67;16.95;;;;;;;0.52;58.44;101327.84;5059896;28;20414;-71
2022/01/27 02:42:26;;;;;;;28.85;16.05;;;;;;;0.44;58.70;101334.25;5055232;28;20491;-77
2022/01/27 02:44:54;;;;;;;23.45;14.60;;;;;;;0.29;59.14;101328.25;5058241;28;20124;-70
2022/01/27 02:47:21;;;;;;;22.33;15.50;;;;;;;0.07;59.38;101297.75;5056300;28;20135;-71
2022/01/27 02:49:47;;;;;;;21.45;17.17;;;;;;;0.33;59.07;101325.94;5060647;28;20476;-71
2022/01/27 02:52:14;;;;;;;26.55;16.65;;;;;;;0.28;59.35;101319.63;5072170;28;20033;-70
2022/01/27 02:54:40;;;;;;;21.02;14.20;;;;;;;0.14;59.22;101315.34;5064301;28;20496;-71
2022/01/27 02:57:05;;;;;;;21.65;14.63;;;;;;;0.40;59.40;101319.41;5062318;28;20087;-70
2022/01/27 02:59:31;;;;;;;22.58;14.20;;;;;;;0.39;58.93;101297.84;5055412;28;20052;-71
2022/01/27 03:01:57;;;;;;;21.33;14.70;;;;;;;0.60;59.20;101318.81;5058056;28;20029;-71
2022/01/27 03:04:24;;;;;;;24.85;14.80;;;;;;;0.49;58.98;101296.69;5062936;28;20492;-70
2022/01/27 03:06:50;;;;;;;22.70;16.38;;;;;;;0.56;59.28;101291.06;5064395;28;20024;-70
2022/01/27 03:09:15;;;;;;;24.17;17.23;;;;;;;0.80;59.10;101293.19;5052364;28;20032;-75
2022/01/27 03:11:56;;;;;;;32.35;18.63;;;;;;;0.72;58.74;101289.28;5063231;28;20040;-71
2022/01/27 03:14:23;;;;;;;22.40;13.50;;;;;;;0.66;59.66;101296.72;5053954;28;20057;-72
2022/01/27 03:16:57;;;;;;;21.30;14.23;;;;;;;0.65;58.48;101289.75;5060231;28;20109;-70
2022/01/27 03:19:22;;;;;;;;;;;;;;;0.64;59.32;101294.06;5055771;28;20354;-70
2022/01/27 03:21:48;;;;;;;16.55;11.88;;;;;;;0.59;59.22;101283.47;5055978;28;19912;-71
2022/01/27 03:24:14;;;;;;;18.75;13.75;;;;;;;0.58;59.15;101281.69;5052001;28;20041;-71
2022/01/27 03:26:41;;;;;;;21.70;14.90;;;;;;;0.74;58.77;101280.81;5064313;28;20047;-71
2022/01/27 03:29:06;;;;;;;19.98;14.45;;;;;;;0.86;58.69;101283.16;5061017;28;20503;-72
2022/01/27 03:31:32;;;;;;;25.77;14.40;;;;;;;0.95;58.45;101288.81;5065335;28;20039;-71
2022/01/27 03:33:57;;;;;;;21.80;15.73;;;;;;;0.89;59.07;101285.00;5054012;28;20031;-72
2022/01/27 03:36:23;;;;;;;23.75;13.30;;;;;;;0.71;58.78;101264.28;5072691;28;20032;-71
2022/01/27 03:38:50;;;;;;;35.88;21.17;;;;;;;0.72;59.56;101276.38;5065682;28;20068;-71
2022/01/27 03:41:20;;;;;;;49.53;32.60;;;;;;;0.78;59.66;101289.63;5057103;28;20129;-74
2022/01/27 03:43:46;;;;;;;49.03;29.60;;;;;;;0.94;59.79;101268.97;5053564;28;20053;-71
2022/01/27 03:46:12;;;;;;;42.92;23.52;;;;;;;0.83;59.03;101288.19;5064204;28;20519;-72
2022/01/27 03:48:38;;;;;;;25.17;18.08;;;;;;;0.97;58.17;101296.66;5071442;28;20064;-72
2022/01/27 03:51:04;;;;;;;27.80;17.30;;;;;;;0.77;58.61;101288.75;5056806;28;20848;-73
2022/01/27 03:53:30;;;;;;;27.48;16.05;;;;;;;0.52;59.23;101307.19;5056428;28;20040;-72
2022/01/27 03:55:56;;;;;;;24.35;16.92;;;;;;;0.44;59.13;101295.53;5062629;28;20487;-72
2022/01/27 03:58:22;;;;;;;21.50;15.43;;;;;;;0.65;58.75;101285.47;5051946;28;20145;-72
2022/01/27 04:00:47;;;;;;;22.10;13.35;;;;;;;0.56;59.19;101290.16;5060219;28;20468;-72
2022/01/27 04:03:16;;;;;;;16.65;11.95;;;;;;;0.58;59.03;101312.66;5057035;28;20056;-71
2022/01/27 04:05:48;;;;;;;24.88;13.07;;;;;;;0.49;59.65;101285.44;5059892;28;20033;-72
2022/01/27 04:08:14;;;;;;;18.40;13.57;;;;;;;0.67;59.72;101322.63;5061993;28;20038;-71
2022/01/27 04:10:39;;;;;;;21.05;15.95;;;;;;;0.70;59.44;101319.31;5057482;28;20501;-73
2022/01/27 04:13:06;;;;;;;21.83;14.88;;;;;;;0.75;59.12;101321.34;5051022;28;20032;-73
2022/01/27 04:15:33;;;;;;;22.27;14.05;;;;;;;0.58;59.53;101301.44;5061675;28;20020;-72
2022/01/27 04:17:59;;;;;;;23.58;14.77;;;;;;;0.70;59.68;101303.81;5059267;28;20045;-72
2022/01/27 04:20:25;;;;;;;23.30;15.30;;;;;;;0.40;59.91;101302.22;5057232;28;20036;-71
2022/01/27 04:22:50;;;;;;;22.52;15.35;;;;;;;0.46;60.30;101322.31;5063549;28;20049;-71
2022/01/27 04:25:16;;;;;;;20.08;13.50;;;;;;;0.46;60.61;101322.31;5054973;28;20041;-73
2022/01/27 04:27:47;;;;;;;23.00;13.65;;;;;;;0.39;61.10;101312.47;5056454;28;20494;-74
2022/01/27 04:30:19;;;;;;;21.42;14.85;;;;;;;0.43;61.31;101314.41;5059103;28;20063;-71
2022/01/27 04:32:51;;;;;;;25.42;18.40;;;;;;;0.54;60.58;101321.06;5066407;28;20036;-73
2022/01/27 04:35:19;;;;;;;19.40;13.05;;;;;;;0.52;61.14;101317.50;5058754;28;20127;-71
2022/01/27 04:40:48;;;;;;;19.40;13.75;;;;;;;0.38;61.38;101301.25;5048333;28;20060;-75
2022/01/27 04:43:53;;;;;;;26.83;14.32;;;;;;;0.61;60.34;101293.91;5052265;28;20045;-71
2022/01/27 04:48:37;;;;;;;30.45;19.05;;;;;;;0.33;61.07;101297.53;5048765;28;20037;-71
2022/01/27 04:51:10;;;;;;;21.48;16.98;;;;;;;0.59;61.47;101317.03;5049692;28;20542;-71
2022/01/27 04:53:53;;;;;;;25.23;13.02;;;;;;;0.51;61.76;101322.56;5061964;28;20068;-71
2022/01/27 04:56:20;;;;;;;25.55;13.95;;;;;;;0.55;61.84;101325.41;5059030;28;20037;-74
2022/01/27 04:58:49;;;;;;;24.60;17.27;;;;;;;0.80;61.00;101324.19;5056797;28;20098;-75
2022/01/27 05:01:17;;;;;;;34.15;17.77;;;;;;;0.59;61.03;101321.31;5055735;28;20024;-72
2022/01/27 05:03:50;;;;;;;21.10;16.77;;;;;;;0.15;61.30;101302.56;5057349;28;20051;-73
2022/01/27 05:06:16;;;;;;;23.95;16.70;;;;;;;0.24;61.89;101327.13;5062326;28;20400;-76
2022/01/27 05:08:42;;;;;;;28.02;17.83;;;;;;;0.39;61.16;101315.94;5051581;28;20057;-70
2022/01/27 05:11:30;;;;;;;19.00;14.07;;;;;;;0.39;61.68;101323.66;5056147;28;20072;-73
2022/01/27 05:14:40;;;;;;;19.90;13.52;;;;;;;0.54;61.16;101326.25;5061978;28;20040;-72
2022/01/27 05:16:58;;;;;;;19.17;14.38;;;;;;;0.35;62.06;101310.50;5054071;28;20047;-71
2022/01/27 05:19:24;;;;;;;25.10;17.10;;;;;;;0.39;61.90;101320.22;5068839;28;20123;-71
2022/01/27 05:22:07;;;;;;;29.67;19.60;;;;;;;0.28;61.91;101332.53;5065694;28;20056;-72
2022/01/27 05:24:33;;;;;;;25.92;13.95;;;;;;;0.31;62.04;101335.28;5063338;28;20037;-73
2022/01/27 05:26:58;;;;;;;20.77;13.32;;;;;;;0.47;61.87;101320.63;5052234;28;20067;-71
2022/01/27 05:29:24;;;;;;;24.65;16.40;;;;;;;0.53;61.79;101341.63;5054299;28;20036;-71
2022/01/27 05:32:16;;;;;;;37.13;20.02;;;;;;;0.55;61.70;101340.91;5062704;28;20048;-72
2022/01/27 05:34:41;;;;;;;29.30;16.95;;;;;;;0.46;62.19;101335.22;5065615;28;20033;-72
2022/01/27 05:37:07;;;;;;;27.90;18.25;;;;;;;0.43;62.06;101323.88;5052991;28;20042;-74
2022/01/27 05:39:32;;;;;;;39.47;16.92;;;;;;;0.46;62.22;101331.78;5061438;28;20032;-72
2022/01/27 05:42:37;;;;;;;23.90;16.35;;;;;;;0.68;61.71;101349.31;5055159;28;20049;-74
2022/01/27 05:45:03;;;;;;;23.10;15.35;;;;;;;0.72;62.01;101344.41;5056264;28;20515;-71
2022/01/27 05:47:28;;;;;;;24.13;15.77;;;;;;;0.54;61.95;101340.81;5057864;28;20044;-72
2022/01/27 05:49:54;;;;;;;27.48;15.65;;;;;;;0.47;61.47;101329.28;5058413;28;20037;-71
2022/01/27 05:52:21;;;;;;;23.15;15.68;;;;;;;0.55;61.41;101355.53;5060212;28;20056;-74
2022/01/27 05:54:47;;;;;;;32.28;19.58;;;;;;;0.58;61.25;101337.59;5063237;28;20400;-73
2022/01/27 05:57:13;;;;;;;28.00;17.85;;;;;;;0.36;61.70;101346.75;5058399;28;20044;-71
2022/01/27 05:59:39;;;;;;;28.58;16.60;;;;;;;0.39;62.08;101344.31;5053899;28;20049;-72
2022/01/27 06:02:04;;;;;;;26.38;18.38;;;;;;;0.35;62.14;101344.06;5059032;28;20131;-72
2022/01/27 06:04:30;;;;;;;26.73;17.30;;;;;;;0.45;61.81;101356.72;5062670;28;20504;-73
2022/01/27 06:06:56;;;;;;;27.70;17.95;;;;;;;0.36;62.17;101364.81;5059398;28;20479;-74
2022/01/27 06:09:21;;;;;;;37.38;22.20;;;;;;;0.52;61.70;101366.56;5064532;28;20052;-71
2022/01/27 06:11:47;;;;;;;30.95;19.98;;;;;;;0.45;61.80;101361.88;5065685;28;20052;-72
2022/01/27 06:14:26;;;;;;;26.92;19.17;;;;;;;0.59;61.35;101352.31;5065641;28;20033;-71
2022/01/27 06:17:09;;;;;;;32.00;20.50;;;;;;;0.57;61.62;101369.41;5054415;28;20050;-71
2022/01/27 06:19:53;;;;;;;28.20;19.37;;;;;;;0.60;61.87;101356.66;5063006;28;20041;-72
2022/01/27 06:22:19;;;;;;;27.55;17.58;;;;;;;0.68;61.75;101346.75;5057894;28;20182;-72
2022/01/27 06:25:04;;;;;;;32.28;19.38;;;;;;;0.74;61.24;101371.22;5057220;28;20394;-70
2022/01/27 06:27:30;;;;;;;27.98;19.17;;;;;;;0.59;61.72;101357.47;5063030;28;20039;-72
2022/01/27 06:30:18;;;;;;;35.83;23.65;;;;;;;0.79;61.91;101377.53;5064390;28;20383;-71
2022/01/27 06:32:43;;;;;;;33.83;23.40;;;;;;;1.03;61.27;101375.41;5056503;28;20049;-72
2022/01/27 06:35:34;;;;;;;34.80;22.98;;;;;;;1.06;61.55;101379.84;5054195;28;20041;-72
2022/01/27 06:38:00;;;;;;;39.78;18.50;;;;;;;0.92;61.38;101358.44;5066666;28;20044;-71
2022/01/27 06:40:26;;;;;;;36.22;22.10;;;;;;;1.01;61.35;101378.72;5064315;28;20129;-76
2022/01/27 06:42:51;;;;;;;39.65;22.55;;;;;;;1.11;61.49;101382.69;5063887;28;20041;-76
2022/01/27 06:45:17;;;;;;;50.70;22.40;;;;;;;0.90;61.54;101365.19;5052684;28;20076;-76
2022/01/27 06:47:42;;;;;;;34.33;23.10;;;;;;;0.91;62.23;101363.50;5062569;28;20071;-73
2022/01/27 06:50:08;;;;;;;40.05;24.02;;;;;;;1.33;61.21;101382.13;5061363;28;20088;-70
2022/01/27 06:52:34;;;;;;;39.63;25.40;;;;;;;1.26;60.92;101393.81;5060152;28;20430;-71
2022/01/27 06:55:02;;;;;;;36.55;21.90;;;;;;;1.15;61.24;101372.59;5052183;28;20110;-72
2022/01/27 06:57:28;;;;;;;34.70;20.25;;;;;;;1.33;60.35;101358.84;5057132;28;20111;-76
2022/01/27 06:59:53;;;;;;;42.90;24.20;;;;;;;1.25;60.38;101367.09;5045538;28;20128;-71
2022/01/27 07:02:19;;;;;;;29.42;19.67;;;;;;;1.20;60.26;101385.75;5040405;28;20068;-70
2022/01/27 07:04:44;;;;;;;32.70;21.23;;;;;;;0.90;60.60;101362.63;5049046;28;20045;-72
2022/01/27 07:07:10;;;;;;;49.65;24.67;;;;;;;0.93;61.02;101391.19;5047202;28;20365;-77
2022/01/27 07:09:36;;;;;;;44.22;22.08;;;;;;;0.91;60.49;101358.34;5057832;28;20040;-71
2022/01/27 07:12:29;;;;;;;41.60;19.85;;;;;;;1.13;60.17;101389.72;5064337;28;20033;-71
2022/01/27 07:14:55;;;;;;;38.33;21.63;;;;;;;1.18;60.19;101385.66;5053382;28;20048;-69
2022/01/27 07:17:42;;;;;;;32.03;22.92;;;;;;;1.25;60.18;101382.59;5063044;28;20040;-71
2022/01/27 07:20:08;;;;;;;33.70;23.55;;;;;;;1.01;59.99;101387.34;5061055;28;20045;-71
2022/01/27 07:22:35;;;;;;;36.10;23.35;;;;;;;0.89;60.76;101386.69;5059994;28;20063;-70
2022/01/27 07:25:03;;;;;;;34.92;25.17;;;;;;;0.97;60.72;101374.19;5062514;28;20068;-71
2022/01/27 07:28:08;;;;;;;32.42;23.45;;;;;;;1.22;59.59;101397.97;5052112;28;20036;-71
2022/01/27 07:30:33;;;;;;;42.22;25.42;;;;;;;1.02;60.42;101373.59;5059064;28;20049;-74
2022/01/27 07:32:59;;;;;;;30.63;20.27;;;;;;;1.20;59.61;101402.16;5054791;28;20122;-71
2022/01/27 07:35:24;;;;;;;39.53;23.67;;;;;;;1.10;59.78;101396.38;5061440;28;20041;-70
2022/01/27 07:37:50;;;;;;;32.53;21.52;;;;;;;1.08;59.88;101375.66;5056957;28;20045;-70
2022/01/27 07:40:15;;;;;;;29.98;19.60;;;;;;;0.72;60.37;101374.53;5055115;28;20404;-74
2022/01/27 07:42:41;;;;;;;44.75;24.10;;;;;;;1.03;59.81;101374.50;5060209;28;20024;-71
2022/01/27 07:45:07;;;;;;;42.88;23.45;;;;;;;0.97;60.07;101387.97;5059105;28;20152;-72
2022/01/27 07:47:34;;;;;;;35.20;23.77;;;;;;;0.87;60.64;101380.53;5051865;28;20033;-71
2022/01/27 07:49:59;;;;;;;29.45;22.08;;;;;;;1.01;60.51;101378.72;5060532;28;20040;-70
2022/01/27 07:52:25;;;;;;;39.85;25.55;;;;;;;1.11;60.09;101398.19;5067990;28;20403;-71
2022/01/27 07:54:50;;;;;;;33.78;21.00;;;;;;;1.23;60.32;101391.09;5057589;28;20037;-71
2022/01/27 07:57:16;;;;;;;35.42;24.77;;;;;;;1.42;60.13;101390.34;5047428;28;20033;-72
2022/01/27 07:59:42;;;;;;;52.22;25.83;;;;;;;1.29;60.05;101380.16;5060612;28;20298;-70
2022/01/27 08:02:07;;;;;;;36.20;25.98;;;;;;;1.41;59.40;101401.53;5065979;28;20048;-71
2022/01/27 08:04:40;;;;;;;43.63;27.77;;;;;;;0.96;60.45;101387.88;5055261;28;20036;-70
2022/01/27 08:07:06;;;;;;;36.92;23.63;;;;;;;1.40;60.42;101398.03;5052375;28;20103;-70
2022/01/27 08:09:32;;;;;;;35.38;24.65;;;;;;;1.30;60.75;101402.66;5058556;28;20032;-70
2022/01/27 08:12:06;;;;;;;36.55;22.73;;;;;;;1.41;59.98;101406.69;5061904;28;20044;-70
2022/01/27 08:14:32;;;;;;;38.17;24.88;;;;;;;1.19;60.32;101384.84;5059583;28;20037;-72
2022/01/27 08:16:57;;;;;;;48.45;26.80;;;;;;;1.36;60.51;101397.78;5057185;28;20050;-71
2022/01/27 08:19:34;;;;;;;42.50;27.40;;;;;;;1.30;60.41;101379.38;5060575;28;20025;-70
2022/01/27 08:22:00;;;;;;;44.58;28.95;;;;;;;1.51;60.22;101387.38;5056669;28;20403;-71
2022/01/27 08:24:25;;;;;;;41.20;28.65;;;;;;;1.50;60.01;101378.72;5048780;28;20033;-69
2022/01/27 08:26:57;;;;;;;39.55;26.63;;;;;;;1.66;59.66;101388.16;5056258;28;20036;-70
2022/01/27 08:29:29;;;;;;;43.28;27.48;;;;;;;1.79;59.47;101390.56;5059416;28;20137;-70
2022/01/27 08:32:01;;;;;;;40.40;26.65;;;;;;;1.60;59.80;101391.31;5056634;28;20127;-72
2022/01/27 08:34:33;;;;;;;36.75;26.15;;;;;;;1.47;60.38;101389.81;5055782;28;20083;-71
2022/01/27 08:37:00;;;;;;;46.78;30.55;;;;;;;1.43;61.02;101395.63;5064405;28;20024;-71
2022/01/27 08:39:26;;;;;;;44.15;29.67;;;;;;;1.36;60.24;101382.25;5057431;28;20021;-70
2022/01/27 08:41:58;;;;;;;46.13;27.70;;;;;;;1.24;60.20;101374.75;5052057;28;20065;-70
2022/01/27 08:44:23;;;;;;;44.25;28.33;;;;;;;1.65;59.54;101399.31;5058400;28;20049;-71
2022/01/27 08:46:49;;;;;;;46.15;24.83;;;;;;;1.79;59.18;101392.28;5064233;28;20037;-71
2022/01/27 08:49:18;;;;;;;41.95;27.90;;;;;;;1.89;58.58;101392.81;5061187;28;20476;-71
2022/01/27 08:51:43;;;;;;;38.97;28.17;;;;;;;1.82;59.46;101398.47;5064027;28;20391;-71
2022/01/27 08:54:09;;;;;;;47.42;27.77;;;;;;;1.65;59.00;101388.97;5060646;28;20037;-70
2022/01/27 08:56:34;;;;;;;43.85;27.98;;;;;;;1.81;59.37;101401.00;5048412;28;20102;-70
2022/01/27 08:59:00;;;;;;;48.53;27.42;;;;;;;2.09;58.85;101393.81;5060571;28;20045;-70
2022/01/27 09:01:27;;;;;;;44.63;29.05;;;;;;;2.40;58.09;101386.69;5064707;28;20045;-69
2022/01/27 09:03:53;;;;;;;42.40;28.10;;;;;;;2.17;58.10;101385.56;5064388;28;20039;-70
2022/01/27 09:06:21;;;;;;;45.15;28.60;;;;;;;2.35;58.21;101409.78;5053014;28;20028;-73
2022/01/27 09:08:48;;;;;;;40.25;27.08;;;;;;;2.16;58.18;101401.91;5053973;28;20066;-71
2022/01/27 09:11:14;;;;;;;47.22;27.13;;;;;;;2.05;58.34;101384.13;5055099;28;20087;-70
2022/01/27 09:13:41;;;;;;;42.60;25.77;;;;;;;2.20;58.04;101384.00;5056389;28;20065;-71
2022/01/27 09:16:08;;;;;;;38.42;26.83;;;;;;;2.52;57.26;101395.03;5067229;28;20051;-70
2022/01/27 09:18:33;;;;;;;37.13;26.52;;;;;;;2.42;57.34;101374.69;5057612;28;20461;-69
2022/01/27 09:21:02;;;;;;;41.72;27.33;;;;;;;2.53;57.13;101392.53;5052835;28;20039;-73
2022/01/27 09:23:57;;;;;;;47.75;29.17;;;;;;;2.14;58.22;101393.19;5063857;28;20094;-70
2022/01/27 09:31:20;;;;;;;42.33;26.23;;;;;;;2.66;57.37;101388.81;4965613;28;20603;-70
2022/01/27 09:33:47;;;;;;;35.05;27.25;;;;;;;2.91;56.56;101397.75;4941124;28;20141;-73
2022/01/27 09:36:14;;;;;;;46.30;26.92;;;;;;;2.90;56.02;101403.75;4942417;28;20469;-71
2022/01/27 09:38:39;;;;;;;38.55;26.52;;;;;;;2.65;56.22;101393.94;4939669;28;20040;-70
2022/01/27 09:41:07;;;;;;;43.28;26.83;;;;;;;2.94;56.81;101384.94;4939577;28;20452;-72
2022/01/27 09:43:35;;;;;;;47.88;26.60;;;;;;;2.87;56.09;101395.84;4941297;28;20050;-70
2022/01/27 09:46:08;;;;;;;34.78;27.00;;;;;;;2.91;56.13;101369.25;4947057;28;20023;-70
2022/01/27 09:48:40;;;;;;;41.33;28.02;;;;;;;2.95;55.49;101389.31;4939343;28;20042;-70
2022/01/27 09:53:48;;;;;;;40.88;26.88;;;;;;;3.03;56.38;101395.75;4943530;28;20035;-69
2022/01/27 09:56:14;;;;;;;40.78;28.27;;;;;;;3.04;55.96;101381.06;4945229;28;20102;-69
2022/01/27 09:58:39;;;;;;;46.95;28.67;;;;;;;3.15;56.40;101388.50;4945393;28;20043;-71
2022/01/27 10:01:05;;;;;;;46.13;28.52;;;;;;;3.07;55.44;101371.72;4940620;28;20387;-71
2022/01/27 10:03:31;;;;;;;40.30;27.35;;;;;;;3.09;56.08;101366.59;4964452;28;20085;-71
2022/01/27 10:06:16;;;;;;;38.05;27.27;;;;;;;3.02;56.30;101378.41;4956089;28;20081;-69
2022/01/27 10:08:42;;;;;;;49.83;26.98;;;;;;;2.79;56.19;101338.47;4965537;28;20038;-70
2022/01/27 10:11:16;;;;;;;36.78;26.33;;;;;;;3.08;55.57;101344.09;4963547;28;20514;-70
2022/01/27 10:13:43;;;;;;;;;;;;;;;3.00;56.12;101361.91;4964884;28;20048;-72
2022/01/27 10:16:30;;;;;;;48.47;26.20;;;;;;;3.03;56.34;101359.44;4937572;28;20132;-69
2022/01/27 10:19:07;;;;;;;32.08;27.00;;;;;;;3.48;55.44;101361.44;4945587;28;20086;-70
2022/01/27 10:21:34;;;;;;;33.65;25.48;;;;;;;3.83;54.63;101359.47;4929397;28;20133;-70
2022/01/27 10:24:22;;;;;;;36.97;25.55;;;;;;;3.65;54.74;101333.63;4936971;28;20079;-71
2022/01/27 10:26:54;;;;;;;52.33;29.67;;;;;;;3.83;54.55;101338.72;4940093;28;20047;-70
2022/01/27 10:29:35;;;;;;;41.35;28.48;;;;;;;3.97;54.35;101346.25;4944330;28;20063;-74
2022/01/27 10:32:06;;;;;;;45.35;25.98;;;;;;;3.81;55.00;101331.72;4960132;28;20130;-71
2022/01/27 10:34:59;;;;;;;34.05;25.45;;;;;;;4.11;54.45;101341.63;4960585;28;20042;-70
2022/01/27 10:37:24;;;;;;;45.45;26.52;;;;;;;4.32;54.18;101340.75;4959852;28;20038;-71
2022/01/27 10:39:50;;;;;;;43.30;26.73;;;;;;;4.13;54.01;101336.50;5004076;28;20033;-71
2022/01/27 10:42:20;;;;;;;40.38;26.55;;;;;;;4.05;54.61;101319.72;4986874;28;20474;-72
2022/01/27 10:44:53;;;;;;;35.88;26.10;;;;;;;4.17;54.44;101304.66;4989152;28;20369;-71
2022/01/27 10:47:22;;;;;;;37.80;26.83;;;;;;;4.43;53.55;101305.69;4989678;28;20146;-70
2022/01/27 10:50:00;;;;;;;35.38;25.58;;;;;;;4.75;53.11;101324.22;4983189;28;20062;-70
2022/01/27 10:52:35;;;;;;;34.42;24.20;;;;;;;5.08;52.57;101293.41;4987698;28;20126;-70
2022/01/27 10:55:27;;;;;;;37.35;24.08;;;;;;;5.43;52.03;101319.78;4989208;28;20017;-71
2022/01/27 10:58:24;;;;;;;28.58;23.85;;;;;;;6.48;50.23;101299.00;4989022;28;20022;-71
2022/01/27 11:00:58;;;;;;;31.80;22.73;;;;;;;6.34;49.18;101306.41;4981357;28;20026;-70
2022/01/27 11:03:25;;;;;;;33.22;22.15;;;;;;;6.27;49.95;101296.59;4988341;28;20038;-71
2022/01/27 11:05:51;;;;;;;46.42;24.25;;;;;;;6.13;49.83;101300.50;4988074;28;20026;-72
2022/01/27 11:08:21;;;;;;;39.70;23.30;;;;;;;6.71;49.04;101296.22;4991341;28;20378;-71
2022/01/27 11:11:17;;;;;;;36.90;24.15;;;;;;;7.03;48.43;101285.84;4981526;28;20478;-71
2022/01/27 11:13:44;;;;;;;44.72;26.38;;;;;;;7.25;48.24;101280.38;4982823;28;20482;-70
2022/01/27 11:16:13;;;;;;;35.60;25.88;;;;;;;6.70;49.20;101268.38;4989767;28;20347;-70
2022/01/27 11:18:39;;;;;;;33.40;25.73;;;;;;;7.55;47.57;101262.03;4991808;28;20030;-70
2022/01/27 11:23:59;;;;;;;32.38;23.98;;;;;;;7.71;46.87;101244.16;5065995;27;20428;-71
2022/01/27 11:26:16;;;;;;;32.13;24.42;;;;;;;7.48;48.27;101259.22;5032759;28;20037;-71
2022/01/27 11:28:44;;;;;;;37.03;22.98;;;;;;;7.01;48.35;101240.56;5045566;28;20095;-70
2022/01/27 11:31:30;;;;;;;30.45;21.15;;;;;;;7.30;48.08;101231.78;5045891;28;20085;-71
2022/01/27 11:34:01;;;;;;;30.95;22.52;;;;;;;7.15;48.44;101241.81;5025552;28;20022;-71
2022/01/27 11:36:29;;;;;;;30.48;21.85;;;;;;;7.36;47.91;101246.72;5042420;28;20495;-70
2022/01/27 11:39:03;;;;;;;31.30;19.83;;;;;;;7.54;47.37;101228.94;5025245;28;20041;-70
2022/01/27 11:41:48;;;;;;;25.83;19.27;;;;;;;7.67;47.23;101248.41;5034760;28;20037;-73
2022/01/27 11:44:22;;;;;;;29.40;19.88;;;;;;;8.01;46.84;101246.63;5055479;28;20045;-73
2022/01/27 11:47:14;;;;;;;27.55;19.80;;;;;;;7.96;46.41;101237.78;5056773;28;20102;-69
2022/01/27 11:49:56;;;;;;;28.77;19.48;;;;;;;7.70;46.90;101224.09;5041892;28;20042;-72
2022/01/27 11:52:27;;;;;;;43.47;19.60;;;;;;;7.50;46.39;101226.22;5051277;28;20040;-71
2022/01/27 11:54:56;;;;;;;21.83;15.65;;;;;;;7.66;46.85;101228.38;5047869;28;20021;-71
2022/01/27 11:57:43;;;;;;;24.30;17.17;;;;;;;7.49;46.91;101219.19;5048859;28;20138;-70
2022/01/27 12:00:14;;;;;;;20.58;15.55;;;;;;;7.25;47.02;101209.88;5044012;28;20041;-71
2022/01/27 12:02:58;;;;;;;24.27;16.33;;;;;;;7.29;47.06;101222.19;5041523;28;20121;-72
2022/01/27 12:05:25;;;;;;;26.60;16.67;;;;;;;7.32;47.60;101224.00;5028987;28;20049;-73
2022/01/27 12:08:08;;;;;;;20.85;15.85;;;;;;;6.76;48.19;101213.78;5029508;28;20072;-72
2022/01/27 12:10:50;;;;;;;25.80;17.15;;;;;;;7.06;47.53;101198.09;5023919;28;20045;-71
2022/01/27 12:13:34;;;;;;;28.25;18.08;;;;;;;6.88;47.79;101221.97;5036147;28;20037;-70
2022/01/27 12:18:58;;;;;;;30.38;19.60;;;;;;;6.88;47.87;101182.84;5027762;28;20053;-71
2022/01/27 12:21:54;;;;;;;26.60;16.75;;;;;;;6.95;47.63;101195.19;5047099;28;20076;-70
2022/01/27 12:24:24;;;;;;;19.48;15.20;;;;;;;7.05;47.93;101185.00;5041122;28;20040;-71
2022/01/27 12:27:05;;;;;;;24.85;16.45;;;;;;;6.92;47.66;101179.44;5044115;28;20098;-71
2022/01/27 12:29:51;;;;;;;22.65;14.13;;;;;;;7.08;47.36;101195.53;5040780;28;20099;-69